Bellvue, Texas
Current Conditions -  °F | °C
As of 9:55 AM on Friday 31 Oct 2014 (Local Time) from K11R Reporting Station
Clear Clear  
Wind Chill: 66°   Ceiling: Unl
Heat Index: 66°   Visibility: 10mi
Dew Point: 50°   Wind: 13mph
Humidity: 57%   Direction: 360°N
Pressure: 30.24"   Gusts: NA
Location:  29.9944°N, 96.2595°W
Report Text: K11R 311455Z AUTO 36011KT 10SM CLR 19/10 A3024 RMK AO2 T01880100
Loading
Personal Weather Stations






























Interactive Weather Map
Tropical Storm Tracking
New forecast layout! Learn more

10-Day Weather Forecast

Advertisements
Track Severe Weather on mobile